Time;durP1;ratioP1;P1;durP2;ratioP2;P2;SDS_P1;SDS_P2;PMS_P1;PMS_P2;Temp;Humidity;BMP_temperature;BMP_pressure;BME280_temperature;BME280_humidity;BME280_pressure;Samples;Min_cycle;Max_cycle;Signal;HPM_P1;HPM_P2
2022/03/01 00:00:49;;;;;;;;;86.40;75.00;;;;;;;;5118900;28;8771;-73
2022/03/01 00:03:16;;;;;;;;;86.20;76.60;;;;;;;;5100648;28;8904;-73
2022/03/01 00:05:43;;;;;;;;;80.00;68.80;;;;;;;;5100520;28;8732;-73
2022/03/01 00:08:09;;;;;;;;;87.00;75.00;;;;;;;;5118952;28;8783;-73
2022/03/01 00:10:36;;;;;;;;;87.20;83.00;;;;;;;;5118380;28;8784;-73
2022/03/01 00:13:03;;;;;;;;;93.40;86.00;;;;;;;;5119003;28;8756;-73
2022/03/01 00:15:33;;;;;;;;;92.40;82.60;;;;;;;;5118490;28;8760;-75
2022/03/01 00:17:59;;;;;;;;;99.80;83.20;;;;;;;;5118296;28;9293;-73
2022/03/01 00:20:26;;;;;;;;;92.40;79.80;;;;;;;;5117437;28;8708;-72
2022/03/01 00:22:53;;;;;;;;;93.60;83.00;;;;;;;;5118318;28;8767;-72
2022/03/01 00:25:19;;;;;;;;;98.00;85.40;;;;;;;;5099297;28;8787;-72
2022/03/01 00:27:46;;;;;;;;;92.40;78.20;;;;;;;;5118017;28;8732;-72
2022/03/01 00:30:13;;;;;;;;;99.00;85.60;;;;;;;;5117619;28;8777;-73
2022/03/01 00:32:40;;;;;;;;;94.60;82.40;;;;;;;;5099484;28;8796;-72
2022/03/01 00:35:07;;;;;;;;;97.60;83.00;;;;;;;;5117464;28;8760;-72
2022/03/01 00:37:33;;;;;;;;;91.40;82.40;;;;;;;;5117206;28;8793;-72
2022/03/01 00:40:00;;;;;;;;;99.40;87.80;;;;;;;;5118384;28;8771;-72
2022/03/01 00:42:27;;;;;;;;;93.60;82.00;;;;;;;;5115584;28;8784;-71
2022/03/01 00:44:57;;;;;;;;;87.50;79.00;;;;;;;;4986971;27;2204782;-71
2022/03/01 00:47:24;;;;;;;;;103.20;91.20;;;;;;;;5015409;28;9450;-71
2022/03/01 00:49:50;;;;;;;;;86.20;78.20;;;;;;;;5032911;28;8793;-71
2022/03/01 00:52:17;;;;;;;;;87.60;81.80;;;;;;;;5033483;28;8770;-68
2022/03/01 00:54:44;;;;;;;;;93.20;78.80;;;;;;;;5048129;28;8754;-68
2022/03/01 00:57:11;;;;;;;;;100.60;84.60;;;;;;;;5033133;28;8762;-68
2022/03/01 00:59:38;;;;;;;;;92.00;77.80;;;;;;;;5033540;28;8766;-69
2022/03/01 01:02:05;;;;;;;;;89.20;82.20;;;;;;;;5033313;28;8783;-70
2022/03/01 01:04:31;;;;;;;;;86.00;75.80;;;;;;;;5048411;28;8795;-68
2022/03/01 01:06:58;;;;;;;;;80.00;74.00;;;;;;;;5034101;28;8747;-67
2022/03/01 01:09:25;;;;;;;;;84.80;80.20;;;;;;;;5033394;28;8835;-66
2022/03/01 01:11:51;;;;;;;;;85.00;75.60;;;;;;;;5048582;28;8920;-67
2022/03/01 01:14:18;;;;;;;;;77.40;69.80;;;;;;;;5033149;28;8767;-67
2022/03/01 01:16:45;;;;;;;;;92.00;79.80;;;;;;;;5033221;28;8798;-70
2022/03/01 01:19:12;;;;;;;;;91.20;80.00;;;;;;;;5033863;28;8790;-68
2022/03/01 01:24:23;;;;;;;;;79.00;73.60;;;;;;;;5032854;28;8798;-67
2022/03/01 01:26:50;;;;;;;;;84.20;71.40;;;;;;;;5033221;28;8896;-67
2022/03/01 01:29:17;;;;;;;;;89.60;77.60;;;;;;;;5012297;28;8900;-66
2022/03/01 01:31:44;;;;;;;;;95.00;81.20;;;;;;;;5013223;28;8741;-67
2022/03/01 01:34:10;;;;;;;;;90.40;84.60;;;;;;;;5013952;28;8789;-66
2022/03/01 01:36:37;;;;;;;;;89.00;85.00;;;;;;;;4995525;28;8870;-63
2022/03/01 01:39:04;;;;;;;;;80.80;74.80;;;;;;;;4995276;28;8754;-65
2022/03/01 01:41:31;;;;;;;;;93.00;80.40;;;;;;;;5023308;28;8829;-65
2022/03/01 01:43:59;;;;;;;;;84.60;71.00;;;;;;;;5047203;28;8833;-67
2022/03/01 01:46:26;;;;;;;;;93.60;80.60;;;;;;;;5047502;28;8775;-67
2022/03/01 01:48:53;;;;;;;;;85.40;75.00;;;;;;;;5048416;28;8782;-65
2022/03/01 01:51:20;;;;;;;;;80.60;64.40;;;;;;;;5032152;28;9482;-67
2022/03/01 01:53:46;;;;;;;;;84.20;70.60;;;;;;;;5047917;28;8755;-66
2022/03/01 01:56:13;;;;;;;;;86.80;75.60;;;;;;;;5020408;28;8791;-66
2022/03/01 01:58:40;;;;;;;;;83.40;72.80;;;;;;;;5019320;28;9402;-67
2022/03/01 02:01:06;;;;;;;;;87.20;78.60;;;;;;;;5020071;28;8751;-65
2022/03/01 02:03:33;;;;;;;;;84.60;76.00;;;;;;;;5018983;28;8779;-67
2022/03/01 02:06:01;;;;;;;;;84.20;77.60;;;;;;;;5017968;28;8759;-67
2022/03/01 02:08:31;;;;;;;;;83.00;74.80;;;;;;;;5017662;28;8759;-63
2022/03/01 02:10:58;;;;;;;;;73.60;60.00;;;;;;;;5017680;28;8774;-65
2022/03/01 02:13:25;;;;;;;;;78.20;66.00;;;;;;;;5033865;28;8789;-66
2022/03/01 02:15:52;;;;;;;;;85.00;73.00;;;;;;;;5035146;28;8790;-65
2022/03/01 02:18:19;;;;;;;;;83.80;73.60;;;;;;;;5019138;28;8763;-66
2022/03/01 02:20:45;;;;;;;;;78.80;68.00;;;;;;;;5019237;28;8763;-67
2022/03/01 02:23:13;;;;;;;;;79.60;71.00;;;;;;;;5019781;28;9042;-65
2022/03/01 02:25:39;;;;;;;;;82.40;70.20;;;;;;;;5028458;28;8761;-67
2022/03/01 02:28:06;;;;;;;;;79.00;68.40;;;;;;;;5000190;28;8713;-65
2022/03/01 02:30:33;;;;;;;;;79.20;65.00;;;;;;;;4998144;28;8750;-69
2022/03/01 02:33:00;;;;;;;;;82.60;73.80;;;;;;;;4997465;28;8781;-72
2022/03/01 02:35:27;;;;;;;;;79.40;66.20;;;;;;;;4998379;28;8876;-71
2022/03/01 02:37:53;;;;;;;;;76.80;59.80;;;;;;;;4998014;28;9898;-72
2022/03/01 02:40:20;;;;;;;;;77.00;64.60;;;;;;;;5001794;28;8795;-72
2022/03/01 02:42:47;;;;;;;;;73.40;58.60;;;;;;;;5032804;28;8767;-72
2022/03/01 02:45:16;;;;;;;;;71.80;60.40;;;;;;;;5033148;28;8798;-72
2022/03/01 02:47:42;;;;;;;;;80.80;67.60;;;;;;;;5018187;28;8775;-66
2022/03/01 02:50:10;;;;;;;;;76.80;66.00;;;;;;;;5033258;28;8771;-68
2022/03/01 02:52:36;;;;;;;;;78.80;67.00;;;;;;;;5033048;28;8759;-68
2022/03/01 02:55:04;;;;;;;;;74.60;60.40;;;;;;;;5017879;28;8818;-67
2022/03/01 02:57:31;;;;;;;;;74.20;63.20;;;;;;;;5016175;28;9734;-67
2022/03/01 02:59:57;;;;;;;;;82.20;68.80;;;;;;;;5033162;28;8751;-73
2022/03/01 03:02:24;;;;;;;;;75.80;62.40;;;;;;;;5017860;28;8885;-66
2022/03/01 03:04:51;;;;;;;;;77.20;66.60;;;;;;;;5018037;28;8821;-67
2022/03/01 03:07:17;;;;;;;;;76.40;63.80;;;;;;;;5017335;28;8782;-64
2022/03/01 03:09:44;;;;;;;;;79.20;68.00;;;;;;;;5018025;28;9551;-67
2022/03/01 03:12:11;;;;;;;;;76.80;62.00;;;;;;;;5016106;28;9483;-68
2022/03/01 03:14:38;;;;;;;;;75.60;58.80;;;;;;;;5016225;28;8803;-66
2022/03/01 03:17:04;;;;;;;;;72.60;55.60;;;;;;;;5032682;28;8759;-65
2022/03/01 03:19:32;;;;;;;;;75.40;60.80;;;;;;;;5017526;28;8857;-66
2022/03/01 03:21:58;;;;;;;;;77.20;64.20;;;;;;;;5018501;28;8735;-69
2022/03/01 03:24:25;;;;;;;;;79.00;64.20;;;;;;;;5017666;28;8743;-66
2022/03/01 03:26:52;;;;;;;;;77.60;63.80;;;;;;;;5017781;28;8811;-64
2022/03/01 03:29:18;;;;;;;;;76.20;61.20;;;;;;;;5017698;28;8779;-63
2022/03/01 03:31:45;;;;;;;;;74.40;61.80;;;;;;;;5017683;28;8786;-66
2022/03/01 03:34:12;;;;;;;;;74.80;59.80;;;;;;;;5018086;28;8813;-65
2022/03/01 03:36:39;;;;;;;;;79.60;64.60;;;;;;;;5031915;28;8848;-66
2022/03/01 03:39:07;;;;;;;;;77.80;60.80;;;;;;;;5031598;28;8763;-66
2022/03/01 03:41:33;;;;;;;;;73.80;57.40;;;;;;;;5015432;28;8786;-66
2022/03/01 03:44:00;;;;;;;;;77.80;66.20;;;;;;;;5025253;28;8813;-65
2022/03/01 03:46:27;;;;;;;;;72.40;61.40;;;;;;;;5027226;28;10349;-66
2022/03/01 03:48:54;;;;;;;;;72.60;58.60;;;;;;;;5017553;28;8755;-66
2022/03/01 03:51:21;;;;;;;;;77.00;65.40;;;;;;;;5016206;28;8755;-66
2022/03/01 03:53:48;;;;;;;;;72.20;56.00;;;;;;;;5015596;28;9201;-66
2022/03/01 03:56:15;;;;;;;;;75.80;62.40;;;;;;;;5016939;28;8793;-66
2022/03/01 03:58:42;;;;;;;;;71.60;59.00;;;;;;;;5015184;28;8759;-66
2022/03/01 04:01:09;;;;;;;;;76.20;63.20;;;;;;;;5032846;28;8773;-66
2022/03/01 04:03:35;;;;;;;;;75.80;63.40;;;;;;;;5016855;28;8778;-66
2022/03/01 04:06:02;;;;;;;;;75.40;65.00;;;;;;;;5016536;28;8755;-66
2022/03/01 04:08:29;;;;;;;;;71.00;56.60;;;;;;;;5015261;28;8731;-66
2022/03/01 04:11:00;;;;;;;;;72.60;59.40;;;;;;;;5016095;28;8775;-66
2022/03/01 04:13:27;;;;;;;;;69.60;57.80;;;;;;;;5015664;28;8759;-66
2022/03/01 04:15:53;;;;;;;;;72.00;58.40;;;;;;;;5016420;28;8798;-66
2022/03/01 04:18:20;;;;;;;;;75.60;62.20;;;;;;;;5015742;28;8735;-66
2022/03/01 04:20:47;;;;;;;;;72.00;55.80;;;;;;;;5016578;28;8762;-66
2022/03/01 04:23:13;;;;;;;;;73.80;58.80;;;;;;;;5016950;28;8882;-66
2022/03/01 04:25:40;;;;;;;;;76.60;65.80;;;;;;;;5026224;28;8736;-66
2022/03/01 04:28:07;;;;;;;;;77.00;60.20;;;;;;;;4997213;28;8778;-66
2022/03/01 04:30:33;;;;;;;;;75.40;60.00;;;;;;;;4996414;28;8981;-66
2022/03/01 04:33:00;;;;;;;;;78.40;65.80;;;;;;;;4996670;28;8781;-67
2022/03/01 04:35:27;;;;;;;;;71.80;57.60;;;;;;;;4996610;28;8782;-66
2022/03/01 04:37:54;;;;;;;;;75.40;61.20;;;;;;;;4997135;28;8789;-66
2022/03/01 04:40:21;;;;;;;;;76.80;65.20;;;;;;;;4998294;28;8794;-67
2022/03/01 04:42:49;;;;;;;;;76.80;65.20;;;;;;;;5016009;28;8810;-65
2022/03/01 04:45:16;;;;;;;;;76.60;65.00;;;;;;;;5016787;28;8885;-67
2022/03/01 04:47:43;;;;;;;;;60.60;45.00;;;;;;;;5016785;28;8755;-67
2022/03/01 04:50:10;;;;;;;;;77.40;66.80;;;;;;;;5016709;28;8821;-68
2022/03/01 04:52:37;;;;;;;;;79.60;66.20;;;;;;;;5016394;28;9447;-66
2022/03/01 04:55:03;;;;;;;;;78.00;69.20;;;;;;;;5015950;28;8850;-68
2022/03/01 04:57:30;;;;;;;;;76.40;64.00;;;;;;;;5016372;28;8782;-67
2022/03/01 05:00:00;;;;;;;;;80.60;68.20;;;;;;;;5030917;28;8890;-65
2022/03/01 05:02:27;;;;;;;;;72.00;64.20;;;;;;;;5016093;28;8791;-67
2022/03/01 05:04:53;;;;;;;;;75.60;64.00;;;;;;;;5015884;28;8889;-66
2022/03/01 05:07:20;;;;;;;;;72.60;59.00;;;;;;;;5016218;28;8758;-66
2022/03/01 05:09:47;;;;;;;;;78.40;66.40;;;;;;;;5016299;28;8762;-67
2022/03/01 05:12:14;;;;;;;;;79.40;69.20;;;;;;;;5015086;28;8975;-64
2022/03/01 05:14:40;;;;;;;;;80.60;70.20;;;;;;;;5015721;28;8912;-69
2022/03/01 05:17:07;;;;;;;;;73.40;65.60;;;;;;;;5015913;28;8866;-66
2022/03/01 05:19:34;;;;;;;;;68.40;52.80;;;;;;;;5015806;28;8773;-66
2022/03/01 05:22:00;;;;;;;;;79.60;66.60;;;;;;;;5016424;28;8747;-65
2022/03/01 05:24:27;;;;;;;;;64.20;49.80;;;;;;;;5015717;28;8771;-64
2022/03/01 05:26:54;;;;;;;;;78.80;66.80;;;;;;;;5015591;28;8767;-65
2022/03/01 05:29:21;;;;;;;;;75.20;64.40;;;;;;;;5014365;28;8759;-69
2022/03/01 05:31:48;;;;;;;;;72.20;61.20;;;;;;;;5018508;28;8767;-67
2022/03/01 05:34:14;;;;;;;;;75.60;61.00;;;;;;;;5035165;28;8770;-67
2022/03/01 05:36:41;;;;;;;;;76.20;63.80;;;;;;;;5019406;28;8747;-68
2022/03/01 05:39:08;;;;;;;;;72.00;60.00;;;;;;;;5018613;28;8735;-68
2022/03/01 05:41:34;;;;;;;;;73.40;65.40;;;;;;;;5018899;28;8782;-68
2022/03/01 05:44:01;;;;;;;;;72.20;58.60;;;;;;;;5017591;28;9509;-68
2022/03/01 05:46:28;;;;;;;;;76.40;65.40;;;;;;;;5019442;28;8861;-68
2022/03/01 05:48:54;;;;;;;;;71.00;56.20;;;;;;;;5019597;28;8854;-67
2022/03/01 05:51:24;;;;;;;;;64.80;49.40;;;;;;;;5018965;28;8767;-68
2022/03/01 05:53:53;;;;;;;;;70.60;56.20;;;;;;;;5019028;28;8747;-68
2022/03/01 05:56:22;;;;;;;;;74.20;60.00;;;;;;;;5018886;28;8771;-69
2022/03/01 05:58:49;;;;;;;;;72.60;59.80;;;;;;;;5017863;28;8759;-67
2022/03/01 06:01:16;;;;;;;;;69.60;56.20;;;;;;;;5018265;28;8763;-66
2022/03/01 06:03:43;;;;;;;;;74.80;65.40;;;;;;;;5017465;28;8775;-67
2022/03/01 06:06:09;;;;;;;;;70.00;54.00;;;;;;;;5018641;28;8849;-67
2022/03/01 06:08:36;;;;;;;;;74.20;59.00;;;;;;;;5018117;28;8773;-67
2022/03/01 06:11:03;;;;;;;;;71.00;59.00;;;;;;;;5015054;28;8866;-67
2022/03/01 06:13:32;;;;;;;;;74.80;64.00;;;;;;;;5018239;28;8884;-67
2022/03/01 06:16:00;;;;;;;;;75.80;63.40;;;;;;;;5018241;28;8789;-67
2022/03/01 06:18:27;;;;;;;;;75.80;62.80;;;;;;;;5033687;28;8824;-67
2022/03/01 06:20:54;;;;;;;;;73.40;60.00;;;;;;;;5017387;28;8754;-67
2022/03/01 06:23:21;;;;;;;;;73.00;61.20;;;;;;;;5016211;28;8903;-67
2022/03/01 06:25:47;;;;;;;;;74.40;61.40;;;;;;;;5017171;28;8739;-67
2022/03/01 06:28:14;;;;;;;;;72.60;62.00;;;;;;;;5019343;28;8802;-67
2022/03/01 06:30:41;;;;;;;;;73.80;59.80;;;;;;;;5018954;28;8959;-66
2022/03/01 06:33:08;;;;;;;;;74.80;62.80;;;;;;;;5019003;28;8770;-67
2022/03/01 06:35:37;;;;;;;;;71.20;56.80;;;;;;;;5018724;28;8778;-67
2022/03/01 06:38:03;;;;;;;;;72.00;60.20;;;;;;;;5017632;28;8871;-67
2022/03/01 06:40:30;;;;;;;;;74.40;61.60;;;;;;;;5017284;28;8767;-67
2022/03/01 06:42:57;;;;;;;;;78.20;66.80;;;;;;;;5019533;28;8799;-66
2022/03/01 06:45:24;;;;;;;;;71.40;57.60;;;;;;;;5017180;28;8786;-67
2022/03/01 06:47:50;;;;;;;;;74.20;59.40;;;;;;;;5018793;28;8806;-66
2022/03/01 06:50:17;;;;;;;;;71.80;54.00;;;;;;;;5016930;28;8806;-66
2022/03/01 06:52:44;;;;;;;;;72.60;59.80;;;;;;;;5017962;28;8771;-67
2022/03/01 06:55:11;;;;;;;;;72.40;56.80;;;;;;;;5018609;28;8743;-67
2022/03/01 06:57:41;;;;;;;;;73.20;57.00;;;;;;;;5017579;28;8759;-67
2022/03/01 07:00:11;;;;;;;;;71.20;60.20;;;;;;;;5016961;28;8775;-68
2022/03/01 07:02:40;;;;;;;;;72.20;60.20;;;;;;;;5015834;28;8783;-67
2022/03/01 07:05:11;;;;;;;;;74.80;64.20;;;;;;;;5030559;28;8774;-68
2022/03/01 07:07:38;;;;;;;;;74.40;62.20;;;;;;;;5017487;28;8786;-67
2022/03/01 07:10:05;;;;;;;;;69.20;57.40;;;;;;;;5016859;28;8755;-68
2022/03/01 07:12:31;;;;;;;;;74.80;63.60;;;;;;;;5032164;28;8869;-66
2022/03/01 07:14:58;;;;;;;;;69.20;57.60;;;;;;;;5017872;28;8852;-67
2022/03/01 07:17:25;;;;;;;;;70.80;61.00;;;;;;;;5007107;28;8814;-67
2022/03/01 07:19:52;;;;;;;;;73.00;64.20;;;;;;;;5008325;28;8755;-66
2022/03/01 07:22:19;;;;;;;;;72.60;61.00;;;;;;;;5017090;28;8765;-67
2022/03/01 07:24:45;;;;;;;;;72.00;61.40;;;;;;;;5016788;28;8928;-67
2022/03/01 07:27:12;;;;;;;;;75.80;63.80;;;;;;;;5015859;28;8786;-66
2022/03/01 07:29:39;;;;;;;;;72.80;60.40;;;;;;;;5032085;28;8797;-69
2022/03/01 07:32:06;;;;;;;;;72.80;60.20;;;;;;;;5016998;28;8759;-68
2022/03/01 07:34:33;;;;;;;;;73.80;62.60;;;;;;;;5016250;28;8768;-67
2022/03/01 07:36:59;;;;;;;;;73.20;61.60;;;;;;;;5032742;28;8773;-69
2022/03/01 07:39:26;;;;;;;;;71.00;62.20;;;;;;;;5031668;28;8774;-69
2022/03/01 07:41:53;;;;;;;;;65.80;53.20;;;;;;;;5016585;28;9142;-67
2022/03/01 07:44:20;;;;;;;;;75.40;67.00;;;;;;;;5015804;28;8806;-67
2022/03/01 07:46:46;;;;;;;;;68.40;59.40;;;;;;;;5017014;28;8779;-67
2022/03/01 07:49:13;;;;;;;;;72.20;58.20;;;;;;;;5018158;28;8751;-67
2022/03/01 07:51:40;;;;;;;;;70.00;56.40;;;;;;;;5030739;28;8755;-69
2022/03/01 07:54:06;;;;;;;;;70.40;54.00;;;;;;;;5014457;28;8767;-68
2022/03/01 07:56:33;;;;;;;;;70.00;57.00;;;;;;;;5017672;28;8769;-73
2022/03/01 07:59:00;;;;;;;;;66.60;52.20;;;;;;;;4996791;28;8777;-71
2022/03/01 08:01:27;;;;;;;;;41.40;31.60;;;;;;;;4989012;28;8807;-67
2022/03/01 08:03:53;;;;;;;;;69.40;55.60;;;;;;;;5006021;28;8766;-69
2022/03/01 08:06:20;;;;;;;;;69.20;55.20;;;;;;;;4991432;28;8860;-69
2022/03/01 08:08:47;;;;;;;;;66.40;54.80;;;;;;;;4993332;28;8733;-69
2022/03/01 08:11:13;;;;;;;;;68.20;51.40;;;;;;;;5001532;28;8779;-70
2022/03/01 08:13:40;;;;;;;;;73.20;61.20;;;;;;;;5014667;28;8820;-67
2022/03/01 08:16:07;;;;;;;;;73.60;58.40;;;;;;;;5017330;28;8743;-69
2022/03/01 08:18:34;;;;;;;;;68.80;56.60;;;;;;;;5015920;28;8766;-70
2022/03/01 08:21:00;;;;;;;;;69.00;56.60;;;;;;;;5016620;28;8782;-72
2022/03/01 08:23:27;;;;;;;;;66.20;53.80;;;;;;;;5031541;28;8822;-69
2022/03/01 08:25:54;;;;;;;;;72.00;57.40;;;;;;;;5016072;28;8786;-66
2022/03/01 08:28:20;;;;;;;;;72.60;61.40;;;;;;;;5016863;28;8773;-67
2022/03/01 08:30:47;;;;;;;;;66.20;52.00;;;;;;;;5015716;28;8783;-67
2022/03/01 08:33:18;;;;;;;;;63.60;50.40;;;;;;;;5015236;28;8774;-66
2022/03/01 08:35:45;;;;;;;;;68.60;52.80;;;;;;;;5016317;28;8774;-67
2022/03/01 08:38:12;;;;;;;;;69.40;52.40;;;;;;;;5017983;28;8762;-67
2022/03/01 08:40:39;;;;;;;;;66.00;51.80;;;;;;;;5017902;28;8767;-66
2022/03/01 08:43:09;;;;;;;;;66.80;54.60;;;;;;;;5015975;28;8787;-67
2022/03/01 08:45:36;;;;;;;;;64.00;50.00;;;;;;;;5016897;28;8795;-67
2022/03/01 08:48:06;;;;;;;;;65.20;51.80;;;;;;;;5017855;28;8779;-67
2022/03/01 08:50:33;;;;;;;;;67.80;53.20;;;;;;;;5031045;28;8959;-67
2022/03/01 08:53:00;;;;;;;;;62.80;50.40;;;;;;;;5016456;28;8751;-67
2022/03/01 08:55:27;;;;;;;;;71.60;55.20;;;;;;;;5016376;28;8798;-67
2022/03/01 08:57:54;;;;;;;;;64.80;51.20;;;;;;;;5016803;28;8794;-67
2022/03/01 09:00:20;;;;;;;;;63.80;50.80;;;;;;;;5016409;28;8751;-67
2022/03/01 09:02:47;;;;;;;;;61.80;50.20;;;;;;;;5015518;28;8775;-67
2022/03/01 09:05:14;;;;;;;;;60.40;47.00;;;;;;;;5017417;28;8794;-67
2022/03/01 09:07:41;;;;;;;;;59.80;47.80;;;;;;;;5020552;28;8766;-67
2022/03/01 09:10:07;;;;;;;;;67.60;53.00;;;;;;;;5020042;28;8727;-67
2022/03/01 09:12:34;;;;;;;;;66.80;53.60;;;;;;;;5020182;28;8778;-65
2022/03/01 09:15:01;;;;;;;;;65.20;50.60;;;;;;;;5020451;28;8775;-66
2022/03/01 09:17:28;;;;;;;;;67.60;55.60;;;;;;;;5020326;28;8773;-64
2022/03/01 09:19:54;;;;;;;;;67.00;53.00;;;;;;;;5020641;28;8877;-66
2022/03/01 09:22:21;;;;;;;;;67.40;50.60;;;;;;;;5035732;28;8751;-66
2022/03/01 09:24:48;;;;;;;;;66.40;51.80;;;;;;;;5020302;28;8739;-66
2022/03/01 09:27:15;;;;;;;;;62.20;49.80;;;;;;;;5018994;28;9474;-66
2022/03/01 09:29:42;;;;;;;;;61.00;50.20;;;;;;;;5020253;28;8775;-66
2022/03/01 09:32:09;;;;;;;;;63.80;51.40;;;;;;;;5018745;28;8751;-66
2022/03/01 09:34:35;;;;;;;;;70.00;55.40;;;;;;;;5020006;28;8862;-66
2022/03/01 09:37:02;;;;;;;;;65.60;51.60;;;;;;;;5020351;28;8751;-66
2022/03/01 09:39:29;;;;;;;;;61.20;50.00;;;;;;;;5019627;28;8755;-66
2022/03/01 09:41:56;;;;;;;;;67.20;51.40;;;;;;;;5034836;28;8771;-66
2022/03/01 09:44:22;;;;;;;;;67.20;50.80;;;;;;;;5034406;28;8787;-66
2022/03/01 09:46:49;;;;;;;;;63.60;49.00;;;;;;;;5018410;28;8781;-66
2022/03/01 09:49:16;;;;;;;;;67.40;53.60;;;;;;;;5020476;28;8885;-66
2022/03/01 09:51:43;;;;;;;;;65.60;49.80;;;;;;;;5019564;28;8747;-66
2022/03/01 09:54:10;;;;;;;;;63.60;50.80;;;;;;;;5019470;28;8766;-66
2022/03/01 09:56:36;;;;;;;;;64.60;52.00;;;;;;;;5021713;28;8778;-66
2022/03/01 09:59:03;;;;;;;;;62.20;51.00;;;;;;;;5000205;28;8757;-66
2022/03/01 10:01:30;;;;;;;;;63.40;50.60;;;;;;;;4998387;28;8741;-66
2022/03/01 10:04:10;;;;;;;;;64.60;51.80;;;;;;;;5000482;28;8796;-66
2022/03/01 10:06:40;;;;;;;;;63.20;50.80;;;;;;;;4999919;28;8757;-65
2022/03/01 10:09:12;;;;;;;;;64.60;51.60;;;;;;;;5000097;28;8757;-66
2022/03/01 10:11:39;;;;;;;;;65.80;51.60;;;;;;;;5012527;28;8761;-66
2022/03/01 10:14:05;;;;;;;;;68.20;54.20;;;;;;;;5019660;28;8881;-66
2022/03/01 10:16:37;;;;;;;;;65.20;53.20;;;;;;;;5018455;28;8771;-66
2022/03/01 10:19:04;;;;;;;;;66.00;52.00;;;;;;;;5018636;28;8770;-66
2022/03/01 10:21:30;;;;;;;;;62.00;50.40;;;;;;;;5018974;28;8750;-66
2022/03/01 10:23:58;;;;;;;;;64.60;50.40;;;;;;;;5019160;28;8755;-66
2022/03/01 10:26:26;;;;;;;;;66.00;50.80;;;;;;;;5018891;28;8719;-66
2022/03/01 10:28:54;;;;;;;;;61.40;48.40;;;;;;;;5033966;28;8863;-66
2022/03/01 10:31:22;;;;;;;;;68.00;54.40;;;;;;;;5019089;28;8813;-66
2022/03/01 10:34:08;;;;;;;;;67.00;52.80;;;;;;;;5033938;28;8735;-66
2022/03/01 10:36:51;;;;;;;;;64.80;50.80;;;;;;;;5017454;28;8758;-66
2022/03/01 10:39:19;;;;;;;;;64.80;52.00;;;;;;;;5019063;28;8873;-67
2022/03/01 10:41:47;;;;;;;;;64.20;51.60;;;;;;;;5019002;28;8731;-66
2022/03/01 10:44:24;;;;;;;;;62.40;50.60;;;;;;;;5033854;28;8806;-66
2022/03/01 10:46:51;;;;;;;;;68.00;55.80;;;;;;;;5010767;28;8817;-66
2022/03/01 10:49:20;;;;;;;;;68.60;51.20;;;;;;;;5031119;28;8758;-66
2022/03/01 10:51:53;;;;;;;;;65.20;52.20;;;;;;;;5033892;28;8751;-66
2022/03/01 10:54:25;;;;;;;;;65.40;52.80;;;;;;;;5020134;28;8747;-66
2022/03/01 10:56:55;;;;;;;;;65.00;52.00;;;;;;;;5018974;28;8743;-66
2022/03/01 10:59:23;;;;;;;;;66.80;53.00;;;;;;;;5018239;28;8869;-66
2022/03/01 11:01:49;;;;;;;;;67.00;53.40;;;;;;;;5033614;28;8755;-66
2022/03/01 11:04:16;;;;;;;;;70.80;54.00;;;;;;;;5018257;28;8767;-66
2022/03/01 11:06:43;;;;;;;;;69.40;53.60;;;;;;;;5018594;28;8735;-66
2022/03/01 11:09:10;;;;;;;;;68.00;55.20;;;;;;;;5018844;28;8752;-66
2022/03/01 11:11:37;;;;;;;;;68.40;52.60;;;;;;;;5017662;28;8874;-66
2022/03/01 11:14:04;;;;;;;;;67.60;56.20;;;;;;;;5017181;28;8739;-66
2022/03/01 11:16:30;;;;;;;;;77.20;69.00;;;;;;;;5033240;28;13809;-66
2022/03/01 11:19:15;;;;;;;;;242.25;225.00;;;;;;;;5018528;28;8748;-66
2022/03/01 11:21:43;;;;;;;;;191.50;177.00;;;;;;;;5017692;28;11697;-66
2022/03/01 11:24:11;;;;;;;;;127.25;119.50;;;;;;;;5016434;28;11136;-66
2022/03/01 11:26:38;;;;;;;;;85.60;82.60;;;;;;;;5017735;28;8751;-66
2022/03/01 11:29:08;;;;;;;;;70.80;59.60;;;;;;;;5032342;28;8981;-66
2022/03/01 11:31:35;;;;;;;;;72.40;64.40;;;;;;;;5017979;28;8747;-66
2022/03/01 11:34:04;;;;;;;;;79.60;63.00;;;;;;;;5018523;28;8755;-66
2022/03/01 11:36:32;;;;;;;;;70.60;60.60;;;;;;;;5017643;28;8747;-66
2022/03/01 11:39:14;;;;;;;;;71.60;55.80;;;;;;;;5032790;28;8731;-66
2022/03/01 11:41:42;;;;;;;;;68.60;55.40;;;;;;;;5032688;28;8759;-66
2022/03/01 11:44:09;;;;;;;;;70.40;58.00;;;;;;;;5017410;28;9420;-66
2022/03/01 11:46:40;;;;;;;;;60.20;44.60;;;;;;;;5017779;28;9538;-66
2022/03/01 11:49:07;;;;;;;;;72.20;57.40;;;;;;;;5018498;28;8866;-66
2022/03/01 11:51:35;;;;;;;;;72.00;57.60;;;;;;;;5017639;28;8738;-66
2022/03/01 11:54:02;;;;;;;;;68.00;54.40;;;;;;;;5017586;28;8749;-66
2022/03/01 11:56:29;;;;;;;;;71.40;57.40;;;;;;;;5017557;28;8727;-66
2022/03/01 11:58:56;;;;;;;;;72.20;61.40;;;;;;;;5016188;28;8773;-66
2022/03/01 12:01:25;;;;;;;;;74.80;57.20;;;;;;;;5033191;28;8727;-66
2022/03/01 12:03:52;;;;;;;;;77.20;66.60;;;;;;;;5016403;28;8768;-66
2022/03/01 12:06:21;;;;;;;;;73.60;63.00;;;;;;;;5016852;28;8799;-67
2022/03/01 12:08:49;;;;;;;;;77.20;66.00;;;;;;;;5017258;28;8873;-66
2022/03/01 12:11:16;;;;;;;;;74.20;65.40;;;;;;;;5017289;28;8774;-66
2022/03/01 12:13:43;;;;;;;;;75.80;62.40;;;;;;;;5032104;28;8779;-66
2022/03/01 12:16:11;;;;;;;;;77.60;67.80;;;;;;;;5033088;28;8845;-66
2022/03/01 12:18:39;;;;;;;;;76.60;67.20;;;;;;;;5017230;28;8810;-66
2022/03/01 12:21:09;;;;;;;;;77.00;65.40;;;;;;;;5032369;28;8806;-67
2022/03/01 12:23:37;;;;;;;;;75.40;66.80;;;;;;;;5015850;28;8811;-67
2022/03/01 12:26:06;;;;;;;;;79.00;67.20;;;;;;;;5009107;28;8777;-67
2022/03/01 12:28:43;;;;;;;;;79.20;69.60;;;;;;;;4997942;28;8823;-66
2022/03/01 12:31:12;;;;;;;;;77.80;69.20;;;;;;;;4998072;28;9430;-66
2022/03/01 12:33:47;;;;;;;;;72.40;62.40;;;;;;;;4996959;28;8801;-66
2022/03/01 12:36:14;;;;;;;;;77.60;68.00;;;;;;;;4996004;28;8774;-66
2022/03/01 12:38:41;;;;;;;;;78.60;67.20;;;;;;;;5012060;28;8777;-66
2022/03/01 12:41:09;;;;;;;;;77.00;66.40;;;;;;;;5020507;28;8759;-66
2022/03/01 12:43:35;;;;;;;;;77.80;68.80;;;;;;;;5014900;28;8843;-66
2022/03/01 12:46:02;;;;;;;;;75.80;65.60;;;;;;;;5017577;28;8751;-66
2022/03/01 12:48:29;;;;;;;;;78.80;68.60;;;;;;;;5015895;28;8781;-66
2022/03/01 12:50:56;;;;;;;;;82.60;71.80;;;;;;;;5031954;28;9448;-65
2022/03/01 12:53:22;;;;;;;;;74.20;60.40;;;;;;;;5015460;28;8806;-66
2022/03/01 12:55:50;;;;;;;;;79.00;68.60;;;;;;;;5025821;28;8872;-66
2022/03/01 12:58:17;;;;;;;;;81.60;73.60;;;;;;;;4980360;28;8778;-66
2022/03/01 13:00:44;;;;;;;;;78.00;70.60;;;;;;;;4995841;28;8754;-66
2022/03/01 13:03:11;;;;;;;;;77.40;64.40;;;;;;;;4995671;28;8761;-66
2022/03/01 13:05:38;;;;;;;;;83.40;73.40;;;;;;;;4996906;28;8809;-66
2022/03/01 13:08:04;;;;;;;;;93.40;82.80;;;;;;;;4997017;28;8855;-66
2022/03/01 13:10:32;;;;;;;;;87.60;79.80;;;;;;;;4983007;28;9448;-66
2022/03/01 13:12:59;;;;;;;;;92.80;83.20;;;;;;;;5017065;28;8735;-66
2022/03/01 13:15:26;;;;;;;;;79.00;72.60;;;;;;;;5031622;28;8804;-66
2022/03/01 13:17:54;;;;;;;;;84.20;77.20;;;;;;;;5031359;28;8799;-66
2022/03/01 13:20:21;;;;;;;;;82.20;71.40;;;;;;;;5031292;28;8771;-66
2022/03/01 13:22:58;;;;;;;;;87.60;77.40;;;;;;;;5016369;28;8759;-66
2022/03/01 13:25:25;;;;;;;;;77.60;66.20;;;;;;;;5031117;28;8771;-67
2022/03/01 13:27:53;;;;;;;;;85.60;77.80;;;;;;;;5017331;28;8736;-66
2022/03/01 13:30:24;;;;;;;;;93.40;81.40;;;;;;;;5030843;28;9401;-66
2022/03/01 13:32:51;;;;;;;;;95.00;83.40;;;;;;;;5014877;28;8767;-66
2022/03/01 13:35:17;;;;;;;;;93.40;87.20;;;;;;;;5031209;28;8778;-67
2022/03/01 13:37:44;;;;;;;;;82.20;75.20;;;;;;;;5016350;28;8736;-66
2022/03/01 13:40:11;;;;;;;;;94.20;86.20;;;;;;;;5015625;28;8762;-66
2022/03/01 13:42:40;;;;;;;;;89.20;82.60;;;;;;;;5030924;28;8763;-66
2022/03/01 13:45:10;;;;;;;;;93.40;86.60;;;;;;;;5016182;28;8747;-66
2022/03/01 13:47:37;;;;;;;;;84.60;75.60;;;;;;;;5031518;28;8802;-66
2022/03/01 13:50:14;;;;;;;;;85.80;80.40;;;;;;;;5031530;28;8754;-66
2022/03/01 13:52:45;;;;;;;;;86.20;85.00;;;;;;;;5034415;28;8736;-66
2022/03/01 13:55:12;;;;;;;;;88.60;81.20;;;;;;;;5018959;28;8782;-66
2022/03/01 13:57:42;;;;;;;;;86.80;80.00;;;;;;;;5018258;28;8864;-66
2022/03/01 14:00:10;;;;;;;;;123.80;102.20;;;;;;;;5035105;28;8894;-66
2022/03/01 14:02:37;;;;;;;;;108.60;96.60;;;;;;;;5018262;28;8869;-66
2022/03/01 14:05:05;;;;;;;;;108.20;96.60;;;;;;;;5018329;28;8775;-66
2022/03/01 14:07:32;;;;;;;;;105.20;95.80;;;;;;;;5018005;28;8739;-66
2022/03/01 14:09:59;;;;;;;;;105.80;89.80;;;;;;;;5035035;28;8818;-67
2022/03/01 14:12:32;;;;;;;;;105.80;94.20;;;;;;;;5017655;28;8747;-66
2022/03/01 14:14:59;;;;;;;;;105.00;92.40;;;;;;;;5018015;28;8779;-66
2022/03/01 14:17:26;;;;;;;;;95.60;88.40;;;;;;;;5018882;28;8739;-66
2022/03/01 14:19:54;;;;;;;;;96.20;86.20;;;;;;;;5019398;28;8809;-66
2022/03/01 14:22:21;;;;;;;;;93.40;87.00;;;;;;;;5034625;28;8769;-66
2022/03/01 14:24:48;;;;;;;;;99.60;88.60;;;;;;;;5019235;28;8759;-66
2022/03/01 14:27:15;;;;;;;;;101.80;91.80;;;;;;;;5019457;28;8797;-66
2022/03/01 14:29:42;;;;;;;;;102.60;92.20;;;;;;;;5034304;28;8827;-66
2022/03/01 14:32:08;;;;;;;;;98.40;91.00;;;;;;;;5033992;28;9524;-66